createdAt,value
2024-01-11T00:01:16.305Z,5.20
2024-01-11T00:03:45.977Z,5.17
2024-01-11T00:06:12.864Z,4.71
2024-01-11T00:08:39.763Z,4.99
2024-01-11T00:11:06.668Z,4.99
2024-01-11T00:13:38.957Z,5.06
2024-01-11T00:16:11.148Z,4.75
2024-01-11T00:18:40.515Z,5.00
2024-01-11T00:21:07.484Z,5.10
2024-01-11T00:23:34.402Z,5.18
2024-01-11T00:26:01.327Z,5.05
2024-01-11T00:28:29.740Z,5.11
2024-01-11T00:30:56.682Z,5.04
2024-01-11T00:33:23.961Z,5.04
2024-01-11T00:35:50.722Z,5.00
2024-01-11T00:38:17.737Z,4.53
2024-01-11T00:40:50.619Z,4.74
2024-01-11T00:43:17.418Z,5.11
2024-01-11T00:45:47.195Z,5.10
2024-01-11T00:48:16.527Z,4.98
2024-01-11T00:50:48.641Z,5.11
2024-01-11T00:53:16.077Z,5.00
2024-01-11T00:55:46.023Z,4.95
2024-01-11T00:58:12.873Z,4.80
2024-01-11T01:00:39.695Z,4.90
2024-01-11T01:03:06.515Z,4.88
2024-01-11T01:05:37.316Z,5.00
2024-01-11T01:08:07.427Z,5.02
2024-01-11T01:10:34.329Z,4.88
2024-01-11T01:13:01.035Z,5.06
2024-01-11T01:15:27.825Z,4.82
2024-01-11T01:17:54.748Z,4.93
2024-01-11T01:20:21.695Z,4.34
2024-01-11T01:22:48.398Z,4.87
2024-01-11T01:25:16.807Z,4.99
2024-01-11T01:27:43.666Z,4.96
2024-01-11T01:30:10.687Z,5.01
2024-01-11T01:32:37.714Z,4.72
2024-01-11T01:35:10.110Z,4.96
2024-01-11T01:37:36.922Z,4.93
2024-01-11T01:40:04.407Z,4.58
2024-01-11T01:42:31.085Z,4.90
2024-01-11T01:44:57.997Z,4.97
2024-01-11T01:47:29.767Z,4.97
2024-01-11T01:50:02.543Z,4.93
2024-01-11T01:52:29.662Z,4.79
2024-01-11T01:54:59.199Z,4.97
2024-01-11T01:57:26.520Z,4.71
2024-01-11T01:59:53.795Z,4.92
2024-01-11T02:02:21.669Z,4.93
2024-01-11T02:04:48.678Z,5.00
2024-01-11T02:07:15.632Z,4.97
2024-01-11T02:09:45.187Z,4.55
2024-01-11T02:12:15.863Z,4.63
2024-01-11T02:14:43.300Z,4.62
2024-01-11T02:17:10.282Z,5.00
2024-01-11T02:19:37.409Z,4.81
2024-01-11T02:22:13.144Z,4.91
2024-01-11T02:24:39.975Z,4.94
2024-01-11T02:27:06.676Z,4.97
2024-01-11T02:29:33.550Z,4.90
2024-01-11T02:32:02.768Z,4.96
2024-01-11T02:34:32.539Z,4.93
2024-01-11T02:37:03.260Z,4.97
2024-01-11T02:39:30.613Z,4.91
2024-01-11T02:41:59.320Z,5.00
2024-01-11T02:44:26.435Z,4.83
2024-01-11T02:46:57.490Z,5.01
2024-01-11T02:49:24.792Z,4.98
2024-01-11T02:51:51.703Z,4.97
2024-01-11T02:54:18.610Z,4.78
2024-01-11T02:57:01.839Z,4.91
2024-01-11T02:59:37.687Z,4.96
2024-01-11T03:02:05.532Z,4.91
2024-01-11T03:04:32.455Z,4.79
2024-01-11T03:06:59.201Z,4.60
2024-01-11T03:09:26.672Z,4.75
2024-01-11T03:11:53.407Z,4.47
2024-01-11T03:14:22.961Z,4.83
2024-01-11T03:16:52.043Z,4.84
2024-01-11T03:19:19.129Z,4.74
2024-01-11T03:21:50.027Z,4.65
2024-01-11T03:24:22.323Z,4.57
2024-01-11T03:27:08.815Z,4.39
2024-01-11T03:29:36.956Z,4.59
2024-01-11T03:32:03.808Z,4.56
2024-01-11T03:34:33.445Z,4.54
2024-01-11T03:37:00.298Z,4.52
2024-01-11T03:39:27.265Z,4.53
2024-01-11T03:41:53.982Z,4.52
2024-01-11T03:44:20.907Z,3.69
2024-01-11T03:46:47.837Z,4.40
2024-01-11T03:49:16.406Z,4.35
2024-01-11T03:51:45.013Z,3.62
2024-01-11T03:54:14.684Z,4.42
2024-01-11T03:56:41.714Z,4.47
2024-01-11T03:59:08.660Z,4.18
2024-01-11T04:01:40.951Z,4.41
2024-01-11T04:04:07.858Z,4.55
2024-01-11T04:06:37.081Z,4.31
2024-01-11T04:09:03.950Z,4.49
2024-01-11T04:11:31.099Z,4.29
2024-01-11T04:14:00.021Z,4.29
2024-01-11T04:16:26.857Z,4.19
2024-01-11T04:18:53.807Z,4.41
2024-01-11T04:21:31.500Z,4.22
2024-01-11T04:24:24.020Z,4.24
2024-01-11T04:27:13.601Z,4.22
2024-01-11T04:29:42.315Z,4.11
2024-01-11T04:32:09.235Z,4.25
2024-01-11T04:34:35.934Z,3.86
2024-01-11T04:37:02.816Z,3.96
2024-01-11T04:39:52.814Z,4.21
2024-01-11T04:42:30.052Z,4.21
2024-01-11T04:45:01.576Z,4.23
2024-01-11T04:47:33.699Z,3.81
2024-01-11T04:50:00.501Z,4.20
2024-01-11T04:52:27.374Z,4.13
2024-01-11T04:54:54.078Z,3.95
2024-01-11T04:57:20.815Z,4.15
2024-01-11T04:59:47.618Z,4.10
2024-01-11T05:02:14.358Z,3.53
2024-01-11T05:04:41.162Z,4.15
2024-01-11T05:07:07.966Z,4.29
2024-01-11T05:09:47.049Z,4.06
2024-01-11T05:12:19.860Z,3.97
2024-01-11T05:14:46.739Z,4.21
2024-01-11T05:17:14.504Z,4.18
2024-01-11T05:19:43.094Z,4.09
2024-01-11T05:22:10.198Z,4.06
2024-01-11T05:24:36.935Z,4.18
2024-01-11T05:27:03.890Z,3.99
2024-01-11T05:29:36.592Z,4.15
2024-01-11T05:32:11.010Z,4.32
2024-01-11T05:34:38.714Z,4.00
2024-01-11T05:37:11.766Z,4.09
2024-01-11T05:39:41.044Z,4.02
2024-01-11T05:42:08.257Z,4.07
2024-01-11T05:44:38.909Z,4.16
2024-01-11T05:47:05.765Z,4.26
2024-01-11T05:49:32.493Z,4.28
2024-01-11T05:51:59.253Z,4.22
2024-01-11T05:54:27.791Z,4.28
2024-01-11T05:56:58.846Z,4.36
2024-01-11T05:59:25.643Z,4.17
2024-01-11T06:01:54.124Z,4.40
2024-01-11T06:04:28.543Z,4.32
2024-01-11T06:07:00.498Z,4.17
2024-01-11T06:09:27.492Z,4.24
2024-01-11T06:11:56.838Z,4.19
2024-01-11T06:14:26.619Z,4.31
2024-01-11T06:16:54.915Z,4.38
2024-01-11T06:19:26.291Z,4.24
2024-01-11T06:21:59.051Z,4.33
2024-01-11T06:24:25.833Z,4.33
2024-01-11T06:26:55.058Z,4.08
2024-01-11T06:29:26.746Z,4.27
2024-01-11T06:31:53.488Z,4.28
2024-01-11T06:34:20.232Z,4.32
2024-01-11T06:36:47.131Z,4.22
2024-01-11T06:39:16.185Z,4.13
2024-01-11T06:41:44.616Z,4.10
2024-01-11T06:44:14.148Z,4.32
2024-01-11T06:46:42.704Z,4.10
2024-01-11T06:49:09.783Z,4.22
2024-01-11T06:51:37.996Z,4.27
2024-01-11T06:54:04.935Z,4.27
2024-01-11T06:56:33.919Z,4.34
2024-01-11T06:59:01.203Z,3.82
2024-01-11T07:01:28.027Z,4.53
2024-01-11T07:04:03.990Z,4.23
2024-01-11T07:06:32.868Z,4.41
2024-01-11T07:09:03.495Z,4.32
2024-01-11T07:11:31.096Z,4.19
2024-01-11T07:14:00.348Z,4.20
2024-01-11T07:16:27.156Z,4.00
2024-01-11T07:18:54.236Z,4.21
2024-01-11T07:21:31.231Z,4.34
2024-01-11T07:24:01.531Z,4.41
2024-01-11T07:26:28.682Z,4.32
2024-01-11T07:28:58.520Z,4.31
2024-01-11T07:31:25.593Z,4.41
2024-01-11T07:34:03.815Z,4.41
2024-01-11T07:36:36.313Z,4.28
2024-01-11T07:39:03.942Z,4.29
2024-01-11T07:41:30.830Z,4.56
2024-01-11T07:44:02.785Z,4.58
2024-01-11T07:46:38.862Z,4.58
2024-01-11T07:49:09.371Z,4.59
2024-01-11T07:51:36.440Z,4.53
2024-01-11T07:54:04.105Z,4.53
2024-01-11T07:56:32.659Z,4.52
2024-01-11T07:58:59.765Z,4.60
2024-01-11T08:01:27.009Z,4.69
2024-01-11T08:03:54.310Z,4.61
2024-01-11T08:06:25.444Z,4.67
2024-01-11T08:08:55.606Z,4.65
2024-01-11T08:11:22.488Z,4.63
2024-01-11T08:13:49.360Z,4.68
2024-01-11T08:16:19.891Z,4.63
2024-01-11T08:18:47.401Z,4.55
2024-01-11T08:21:14.873Z,4.75
2024-01-11T08:23:47.206Z,4.27
2024-01-11T08:26:15.543Z,4.58
2024-01-11T08:28:46.085Z,4.40
2024-01-11T08:31:13.862Z,4.58
2024-01-11T08:33:41.523Z,4.76
2024-01-11T08:36:12.837Z,4.66
2024-01-11T08:38:45.976Z,4.55
2024-01-11T08:41:13.024Z,4.58
2024-01-11T08:43:40.897Z,4.56
2024-01-11T08:46:07.677Z,4.45
2024-01-11T08:48:34.883Z,4.54
2024-01-11T08:51:02.351Z,4.55
2024-01-11T08:53:29.288Z,4.55
2024-01-11T08:55:56.258Z,4.57
2024-01-11T08:58:23.049Z,4.56
2024-01-11T09:00:51.747Z,4.40
2024-01-11T09:03:18.912Z,4.56
2024-01-11T09:05:51.507Z,4.54
2024-01-11T09:08:24.338Z,4.73
2024-01-11T09:10:51.243Z,4.76
2024-01-11T09:13:20.075Z,4.70
2024-01-11T09:15:46.877Z,4.98
2024-01-11T09:18:16.954Z,4.09
2024-01-11T09:20:55.252Z,4.85
2024-01-11T09:23:24.172Z,5.01
2024-01-11T09:25:58.845Z,5.12
2024-01-11T09:28:25.768Z,4.98
2024-01-11T09:30:52.604Z,4.79
2024-01-11T09:33:22.085Z,4.89
2024-01-11T09:35:49.230Z,4.66
2024-01-11T09:38:18.577Z,5.16
2024-01-11T09:40:45.641Z,5.19
2024-01-11T09:43:22.826Z,5.31
2024-01-11T09:45:56.702Z,5.25
2024-01-11T09:48:25.996Z,5.38
2024-01-11T09:51:05.953Z,5.46
2024-01-11T09:53:44.480Z,5.13
2024-01-11T09:56:12.135Z,5.50
2024-01-11T09:58:46.414Z,5.52
2024-01-11T10:01:14.969Z,5.38
2024-01-11T10:03:44.528Z,4.96
2024-01-11T10:06:11.604Z,5.51
2024-01-11T10:08:38.540Z,5.48
2024-01-11T10:11:05.894Z,5.52
2024-01-11T10:13:37.005Z,5.46
2024-01-11T10:16:07.760Z,5.63
2024-01-11T10:18:34.822Z,5.01
2024-01-11T10:21:02.529Z,5.35
2024-01-11T10:23:32.816Z,5.54
2024-01-11T10:26:13.322Z,5.50
2024-01-11T10:28:40.119Z,5.55
2024-01-11T10:31:11.741Z,5.67
2024-01-11T10:33:40.393Z,5.47
2024-01-11T10:36:15.742Z,5.06
2024-01-11T10:38:50.011Z,5.66
2024-01-11T10:41:21.864Z,5.78
2024-01-11T10:43:49.785Z,5.28
2024-01-11T10:46:18.106Z,5.59
2024-01-11T10:48:50.433Z,5.76
2024-01-11T10:51:21.064Z,5.72
2024-01-11T10:53:49.343Z,5.41
2024-01-11T10:56:19.826Z,5.95
2024-01-11T10:58:48.428Z,6.14
2024-01-11T11:01:15.971Z,6.03
2024-01-11T11:03:50.980Z,6.07
2024-01-11T11:06:20.315Z,5.77
2024-01-11T11:08:51.880Z,5.62
2024-01-11T11:11:19.688Z,5.85
2024-01-11T11:13:50.022Z,6.02
2024-01-11T11:16:18.309Z,5.82
2024-01-11T11:18:45.871Z,5.76
2024-01-11T11:21:13.077Z,5.98
2024-01-11T11:23:40.622Z,5.99
2024-01-11T11:26:11.576Z,6.08
2024-01-11T11:28:38.445Z,6.10
2024-01-11T11:31:05.398Z,6.10
2024-01-11T11:33:33.384Z,6.06
2024-01-11T11:36:04.270Z,6.11
2024-01-11T11:38:32.757Z,6.23
2024-01-11T11:41:01.594Z,6.14
2024-01-11T11:43:42.418Z,5.97
2024-01-11T11:46:19.377Z,6.15
2024-01-11T11:48:56.035Z,6.12
2024-01-11T11:51:25.787Z,6.33
2024-01-11T11:53:54.811Z,6.34
2024-01-11T11:56:23.671Z,6.16
2024-01-11T11:58:51.160Z,6.27
2024-01-11T12:01:32.078Z,6.42
2024-01-11T12:04:04.134Z,6.44
2024-01-11T12:06:43.806Z,6.46
2024-01-11T12:09:31.628Z,6.44
2024-01-11T12:12:20.748Z,6.54
2024-01-11T12:14:51.011Z,6.39
2024-01-11T12:17:21.786Z,6.50
2024-01-11T12:19:49.684Z,6.52
2024-01-11T12:22:16.731Z,6.54
2024-01-11T12:24:43.564Z,6.74
2024-01-11T12:27:10.468Z,6.28
2024-01-11T12:29:48.163Z,6.46
2024-01-11T12:32:20.014Z,6.46
2024-01-11T12:34:54.228Z,6.07
2024-01-11T12:37:29.869Z,6.73
2024-01-11T12:40:00.576Z,6.58
2024-01-11T12:42:30.786Z,6.57
2024-01-11T12:44:59.479Z,6.43
2024-01-11T12:47:30.913Z,6.73
2024-01-11T12:49:57.830Z,6.80
2024-01-11T12:52:31.756Z,6.60
2024-01-11T12:54:59.305Z,6.76
2024-01-11T12:57:30.429Z,6.64
2024-01-11T13:00:13.553Z,6.63
2024-01-11T13:02:44.107Z,6.68
2024-01-11T13:05:11.048Z,6.76
2024-01-11T13:07:41.784Z,6.70
2024-01-11T13:10:09.381Z,6.92
2024-01-11T13:12:36.586Z,6.80
2024-01-11T13:15:12.189Z,6.63
2024-01-11T13:17:47.370Z,6.69
2024-01-11T13:20:15.684Z,6.77
2024-01-11T13:22:44.640Z,6.77
2024-01-11T13:25:14.602Z,6.74
2024-01-11T13:27:46.299Z,6.89
2024-01-11T13:30:18.043Z,6.79
2024-01-11T13:32:46.757Z,6.84
2024-01-11T13:35:14.066Z,6.87
2024-01-11T13:37:41.706Z,6.88
2024-01-11T13:40:18.166Z,6.83
2024-01-11T13:42:56.352Z,6.85
2024-01-11T13:45:24.852Z,6.80
2024-01-11T13:47:52.708Z,6.76
2024-01-11T13:50:21.170Z,6.60
2024-01-11T13:52:49.009Z,6.74
2024-01-11T13:55:15.813Z,6.81
2024-01-11T13:57:44.273Z,6.85
2024-01-11T14:00:12.716Z,6.88
2024-01-11T14:02:40.987Z,6.46
2024-01-11T14:05:12.745Z,6.97
2024-01-11T14:07:45.500Z,7.01
2024-01-11T14:10:18.437Z,6.83
2024-01-11T14:12:45.205Z,6.86
2024-01-11T14:15:15.169Z,7.03
2024-01-11T14:17:43.352Z,6.53
2024-01-11T14:20:15.547Z,6.94
2024-01-11T14:22:56.432Z,6.99
2024-01-11T14:25:31.654Z,6.83
2024-01-11T14:27:59.611Z,6.99
2024-01-11T14:30:29.997Z,6.91
2024-01-11T14:33:05.902Z,6.85
2024-01-11T14:35:36.994Z,7.04
2024-01-11T14:38:08.107Z,6.92
2024-01-11T14:40:35.675Z,6.82
2024-01-11T14:43:02.490Z,7.01
2024-01-11T14:45:29.890Z,7.00
2024-01-11T14:48:05.581Z,6.81
2024-01-11T14:50:32.385Z,7.04
2024-01-11T14:53:05.103Z,7.04
2024-01-11T14:55:34.318Z,6.63
2024-01-11T14:58:02.381Z,7.02
2024-01-11T15:00:32.984Z,7.00
2024-01-11T15:03:00.087Z,6.98
2024-01-11T15:05:26.873Z,7.03
2024-01-11T15:07:55.282Z,6.88
2024-01-11T15:10:24.247Z,6.88
2024-01-11T15:12:50.990Z,6.86
2024-01-11T15:15:19.461Z,6.79
2024-01-11T15:17:46.316Z,6.66
2024-01-11T15:20:13.969Z,6.73
2024-01-11T15:22:40.744Z,6.72
2024-01-11T15:25:09.341Z,6.82
2024-01-11T15:27:36.321Z,6.57
2024-01-11T15:30:04.043Z,6.75
2024-01-11T15:32:39.257Z,6.81
2024-01-11T15:35:15.266Z,6.78
2024-01-11T15:37:43.135Z,6.74
2024-01-11T15:40:10.290Z,6.78
2024-01-11T15:42:42.867Z,6.72
2024-01-11T15:45:10.075Z,6.72
2024-01-11T15:47:47.055Z,6.27
2024-01-11T15:50:13.964Z,6.68
2024-01-11T15:52:41.843Z,6.66
2024-01-11T15:55:55.209Z,6.10
2024-01-11T15:58:38.165Z,6.63
2024-01-11T16:01:05.404Z,5.89
2024-01-11T16:03:35.681Z,6.34
2024-01-11T16:06:02.579Z,6.47
2024-01-11T16:08:33.052Z,6.47
2024-01-11T16:11:00.511Z,5.57
2024-01-11T16:13:30.736Z,6.44
2024-01-11T16:16:00.725Z,6.07
2024-01-11T16:18:27.814Z,5.87
2024-01-11T16:20:56.291Z,6.10
2024-01-11T16:23:23.271Z,6.28
2024-01-11T16:25:50.241Z,6.15
2024-01-11T16:28:17.203Z,6.16
2024-01-11T16:30:44.105Z,6.10
2024-01-11T16:33:11.663Z,5.81
2024-01-11T16:35:45.234Z,6.00
2024-01-11T16:38:19.537Z,6.11
2024-01-11T16:40:46.493Z,6.11
2024-01-11T16:43:14.721Z,5.93
2024-01-11T16:45:52.811Z,6.06
2024-01-11T16:48:24.914Z,5.91
2024-01-11T16:50:52.152Z,5.96
2024-01-11T16:53:19.021Z,6.04
2024-01-11T16:55:46.688Z,5.96
2024-01-11T16:58:17.054Z,5.97
2024-01-11T17:03:36.755Z,6.10
2024-01-11T17:06:04.074Z,6.11
2024-01-11T17:08:31.268Z,6.10
2024-01-11T17:11:10.616Z,6.06
2024-01-11T17:13:38.462Z,6.01
2024-01-11T17:16:21.408Z,5.97
2024-01-11T17:18:48.818Z,5.77
2024-01-11T17:21:15.970Z,5.60
2024-01-11T17:23:44.834Z,5.65
2024-01-11T17:26:13.086Z,5.62
2024-01-11T17:28:40.029Z,5.91
2024-01-11T17:31:07.401Z,5.92
2024-01-11T17:33:47.879Z,5.86
2024-01-11T17:36:15.369Z,5.67
2024-01-11T17:38:46.030Z,5.78
2024-01-11T17:41:20.372Z,5.82
2024-01-11T17:43:51.075Z,5.81
2024-01-11T17:46:36.308Z,5.88
2024-01-11T17:49:03.548Z,5.63
2024-01-11T17:51:30.415Z,5.39
2024-01-11T17:53:57.377Z,5.79
2024-01-11T17:56:24.499Z,5.96
2024-01-11T17:58:51.281Z,5.30
2024-01-11T18:01:23.363Z,5.82
2024-01-11T18:03:55.061Z,5.64
2024-01-11T18:06:27.227Z,5.74
2024-01-11T18:08:54.425Z,5.65
2024-01-11T18:11:21.278Z,5.46
2024-01-11T18:13:48.089Z,5.62
2024-01-11T18:16:25.176Z,5.66
2024-01-11T18:18:52.352Z,5.68
2024-01-11T18:21:20.894Z,5.40
2024-01-11T18:24:00.867Z,5.85
2024-01-11T18:26:44.000Z,5.68
2024-01-11T18:29:19.879Z,5.62
2024-01-11T18:31:56.125Z,5.63
2024-01-11T18:34:23.145Z,5.24
2024-01-11T18:36:52.802Z,5.69
2024-01-11T18:39:20.680Z,5.81
2024-01-11T18:42:10.499Z,5.43
2024-01-11T18:44:52.538Z,5.53
2024-01-11T18:47:22.086Z,5.54
2024-01-11T18:49:49.410Z,5.59
2024-01-11T18:52:23.404Z,5.44
2024-01-11T18:55:05.250Z,5.36
2024-01-11T18:57:39.750Z,5.18
2024-01-11T19:00:21.653Z,5.27
2024-01-11T19:03:00.585Z,5.42
2024-01-11T19:05:41.526Z,5.18
2024-01-11T19:08:14.076Z,5.21
2024-01-11T19:10:47.748Z,5.28
2024-01-11T19:13:24.497Z,5.24
2024-01-11T19:16:04.531Z,5.09
2024-01-11T19:18:32.103Z,5.20
2024-01-11T19:21:11.995Z,4.80
2024-01-11T19:23:56.574Z,4.95
2024-01-11T19:26:41.931Z,4.88
2024-01-11T19:29:10.290Z,4.65
2024-01-11T19:32:00.057Z,4.86
2024-01-11T19:34:51.572Z,4.64
2024-01-11T19:37:23.130Z,4.73
2024-01-11T19:39:51.099Z,4.67
2024-01-11T19:42:17.876Z,4.66
2024-01-11T19:44:44.767Z,4.79
2024-01-11T19:47:32.755Z,4.77
2024-01-11T19:50:13.621Z,4.55
2024-01-11T19:52:58.289Z,4.67
2024-01-11T19:55:26.979Z,4.79
2024-01-11T19:57:53.736Z,4.77
2024-01-11T20:00:25.155Z,4.79
2024-01-11T20:02:52.170Z,4.81
2024-01-11T20:05:19.480Z,5.06
2024-01-11T20:07:46.769Z,5.11
2024-01-11T20:10:13.603Z,5.06
2024-01-11T20:12:40.335Z,4.59
2024-01-11T20:15:10.414Z,4.84
2024-01-11T20:17:37.603Z,4.59
2024-01-11T20:20:10.294Z,4.60
2024-01-11T20:22:37.291Z,4.58
2024-01-11T20:25:07.607Z,4.50
2024-01-11T20:27:36.577Z,4.59
2024-01-11T20:30:08.052Z,4.66
2024-01-11T20:32:36.912Z,4.70
2024-01-11T20:35:04.035Z,4.17
2024-01-11T20:37:30.868Z,4.40
2024-01-11T20:39:57.595Z,4.46
2024-01-11T20:42:26.713Z,4.47
2024-01-11T20:44:56.787Z,4.45
2024-01-11T20:47:24.006Z,4.54
2024-01-11T20:49:52.153Z,4.45
2024-01-11T20:52:24.311Z,4.64
2024-01-11T20:54:53.417Z,4.45
2024-01-11T20:57:20.977Z,4.07
2024-01-11T20:59:47.812Z,4.54
2024-01-11T21:02:14.801Z,4.37
2024-01-11T21:04:41.662Z,4.58
2024-01-11T21:07:17.001Z,4.54
2024-01-11T21:09:43.686Z,4.71
2024-01-11T21:12:12.408Z,4.18
2024-01-11T21:14:39.358Z,4.62
2024-01-11T21:17:07.401Z,4.57
2024-01-11T21:19:35.114Z,4.53
2024-01-11T21:22:04.141Z,4.43
2024-01-11T21:24:35.866Z,4.55
2024-01-11T21:27:04.050Z,4.45
2024-01-11T21:29:31.077Z,3.96
2024-01-11T21:31:58.733Z,4.40
2024-01-11T21:34:26.178Z,4.29
2024-01-11T21:36:53.026Z,3.76
2024-01-11T21:39:20.715Z,3.70
2024-01-11T21:44:29.773Z,4.35
2024-01-11T21:46:56.984Z,3.78
2024-01-11T21:49:23.809Z,4.14
2024-01-11T21:51:58.909Z,3.96
2024-01-11T21:54:36.668Z,4.35
2024-01-11T21:57:23.338Z,4.32
2024-01-11T21:59:53.901Z,4.42
2024-01-11T22:02:37.917Z,4.21
2024-01-11T22:05:22.830Z,4.40
2024-01-11T22:07:56.092Z,4.43
2024-01-11T22:10:22.844Z,4.51
2024-01-11T22:12:58.905Z,4.44
2024-01-11T22:15:26.003Z,4.34
2024-01-11T22:18:03.457Z,4.11
2024-01-11T22:20:34.474Z,4.12
2024-01-11T22:23:03.878Z,4.09
2024-01-11T22:25:32.624Z,4.15
2024-01-11T22:28:05.520Z,4.18
2024-01-11T22:30:32.545Z,4.10
2024-01-11T22:32:59.445Z,4.19
2024-01-11T22:35:26.455Z,4.12
2024-01-11T22:37:53.368Z,4.13
2024-01-11T22:40:20.696Z,3.93
2024-01-11T22:42:49.367Z,3.98
2024-01-11T22:45:17.765Z,3.80
2024-01-11T22:47:45.367Z,3.78
2024-01-11T22:50:16.224Z,3.77
2024-01-11T22:52:44.904Z,4.01
2024-01-11T22:55:11.713Z,3.88
2024-01-11T22:57:39.746Z,4.05
2024-01-11T23:00:22.645Z,3.82
2024-01-11T23:02:51.112Z,3.74
2024-01-11T23:05:24.266Z,3.53
2024-01-11T23:07:51.054Z,3.73
2024-01-11T23:10:18.185Z,3.21
2024-01-11T23:12:45.064Z,3.71
2024-01-11T23:15:12.524Z,3.88
2024-01-11T23:17:42.195Z,4.00
2024-01-11T23:20:13.486Z,3.91
2024-01-11T23:22:42.063Z,3.70
2024-01-11T23:25:11.923Z,3.83
2024-01-11T23:27:38.628Z,3.79
2024-01-11T23:30:09.620Z,3.93
2024-01-11T23:32:41.653Z,3.73
2024-01-11T23:35:26.143Z,3.48
2024-01-11T23:37:57.590Z,3.67
2024-01-11T23:40:33.645Z,3.57
2024-01-11T23:43:03.880Z,3.18
2024-01-11T23:45:39.013Z,3.75
2024-01-11T23:48:26.768Z,3.69
2024-01-11T23:50:57.134Z,3.48
2024-01-11T23:53:30.395Z,3.71
2024-01-11T23:56:06.456Z,3.66
2024-01-11T23:58:48.442Z,3.57
